createdAt,value
2022-11-24T00:00:48.057Z,36.50
2022-11-24T00:03:18.787Z,27.50
2022-11-24T00:05:49.680Z,30.40
2022-11-24T00:08:20.208Z,30.92
2022-11-24T00:10:50.943Z,29.48
2022-11-24T00:13:21.399Z,56.97
2022-11-24T00:15:52.357Z,37.03
2022-11-24T00:18:23.063Z,29.75
2022-11-24T00:20:55.111Z,33.22
2022-11-24T00:23:28.370Z,31.95
2022-11-24T00:26:06.413Z,31.15
2022-11-24T00:28:37.440Z,28.80
2022-11-24T00:31:19.131Z,35.15
2022-11-24T00:33:51.408Z,28.25
2022-11-24T00:36:23.395Z,26.60
2022-11-24T00:39:02.037Z,21.38
2022-11-24T00:41:33.101Z,25.30
2022-11-24T00:44:04.265Z,27.23
2022-11-24T00:46:38.697Z,24.05
2022-11-24T00:49:09.956Z,31.42
2022-11-24T00:51:40.653Z,26.17
2022-11-24T00:54:12.005Z,27.95
2022-11-24T00:56:42.512Z,25.58
2022-11-24T00:59:13.349Z,20.52
2022-11-24T01:01:44.046Z,21.98
2022-11-24T01:04:14.581Z,21.38
2022-11-24T01:06:45.445Z,25.83
2022-11-24T01:09:15.985Z,23.02
2022-11-24T01:12:02.913Z,16.40
2022-11-24T01:14:34.167Z,14.43
2022-11-24T01:17:06.111Z,25.08
2022-11-24T01:19:36.861Z,17.70
2022-11-24T01:22:07.701Z,10.30
2022-11-24T01:24:38.500Z,12.23
2022-11-24T01:27:08.849Z,12.85
2022-11-24T01:29:40.091Z,16.50
2022-11-24T01:32:10.293Z,12.73
2022-11-24T01:34:40.796Z,13.60
2022-11-24T01:37:11.508Z,17.23
2022-11-24T01:39:42.133Z,12.85
2022-11-24T01:42:12.961Z,11.13
2022-11-24T01:44:43.493Z,13.32
2022-11-24T01:47:32.865Z,9.75
2022-11-24T01:50:04.865Z,10.93
2022-11-24T01:52:40.387Z,11.93
2022-11-24T01:55:16.328Z,14.20
2022-11-24T01:57:54.158Z,17.90
2022-11-24T02:00:24.848Z,17.27
2022-11-24T02:02:55.410Z,18.45
2022-11-24T02:05:32.589Z,12.15
2022-11-24T02:08:03.820Z,16.90
2022-11-24T02:10:35.422Z,11.65
2022-11-24T02:13:06.221Z,11.90
2022-11-24T02:15:37.912Z,15.95
2022-11-24T02:18:08.422Z,15.55
2022-11-24T02:20:39.803Z,11.95
2022-11-24T02:23:26.718Z,14.75
2022-11-24T02:26:16.857Z,13.32
2022-11-24T02:28:48.441Z,10.88
2022-11-24T02:31:18.918Z,12.95
2022-11-24T02:33:51.895Z,14.73
2022-11-24T02:36:22.339Z,16.23
2022-11-24T02:38:53.088Z,10.75
2022-11-24T02:41:24.660Z,8.70
2022-11-24T02:44:01.532Z,9.30
2022-11-24T02:46:32.441Z,6.78
2022-11-24T02:49:03.360Z,9.65
2022-11-24T02:51:35.470Z,8.27
2022-11-24T02:54:05.769Z,11.07
2022-11-24T02:56:36.059Z,9.00
2022-11-24T02:59:06.690Z,10.85
2022-11-24T03:01:37.016Z,14.15
2022-11-24T03:04:08.897Z,9.65
2022-11-24T03:06:39.724Z,11.60
2022-11-24T03:09:11.820Z,12.13
2022-11-24T03:11:43.255Z,17.35
2022-11-24T03:14:14.066Z,25.85
2022-11-24T03:16:44.854Z,27.27
2022-11-24T03:19:15.679Z,16.70
2022-11-24T03:21:46.331Z,29.65
2022-11-24T03:24:17.168Z,23.60
2022-11-24T03:26:49.755Z,28.33
2022-11-24T03:29:20.056Z,16.83
2022-11-24T03:31:50.731Z,25.77
2022-11-24T03:34:21.350Z,16.88
2022-11-24T03:36:52.509Z,14.65
2022-11-24T03:39:24.459Z,24.00
2022-11-24T03:41:55.308Z,16.25
2022-11-24T03:44:26.256Z,15.10
2022-11-24T03:46:56.647Z,12.30
2022-11-24T03:49:27.729Z,17.45
2022-11-24T03:52:00.645Z,19.13
2022-11-24T03:54:36.644Z,20.05
2022-11-24T03:57:07.203Z,16.27
2022-11-24T03:59:37.501Z,15.73
2022-11-24T04:02:08.793Z,18.85
2022-11-24T04:04:39.540Z,15.73
2022-11-24T04:07:10.607Z,21.38
2022-11-24T04:09:41.676Z,18.25
2022-11-24T04:12:30.957Z,19.17
2022-11-24T04:15:01.168Z,19.38
2022-11-24T04:17:34.052Z,19.27
2022-11-24T04:20:04.683Z,17.48
2022-11-24T04:22:37.734Z,16.15
2022-11-24T04:25:09.603Z,12.90
2022-11-24T04:27:40.216Z,14.43
2022-11-24T04:30:11.776Z,16.90
2022-11-24T04:32:42.643Z,19.65
2022-11-24T04:35:13.865Z,14.85
2022-11-24T04:37:44.481Z,12.35
2022-11-24T04:40:15.848Z,15.15
2022-11-24T04:42:53.123Z,18.85
2022-11-24T04:45:24.546Z,19.10
2022-11-24T04:47:55.131Z,17.40
2022-11-24T04:50:26.199Z,16.17
2022-11-24T04:52:56.569Z,19.00
2022-11-24T04:55:27.226Z,22.38
2022-11-24T04:57:59.159Z,15.38
2022-11-24T05:00:29.604Z,15.68
2022-11-24T05:03:01.324Z,19.10
2022-11-24T05:05:31.903Z,13.40
2022-11-24T05:08:02.933Z,19.40
2022-11-24T05:10:36.634Z,26.10
2022-11-24T05:13:11.532Z,20.05
2022-11-24T05:15:43.032Z,18.27
2022-11-24T05:18:16.243Z,16.25
2022-11-24T05:20:46.977Z,23.27
2022-11-24T05:23:17.858Z,13.95
2022-11-24T05:25:52.080Z,19.00
2022-11-24T05:28:23.318Z,20.52
2022-11-24T05:30:54.208Z,15.30
2022-11-24T05:33:25.123Z,20.10
2022-11-24T05:35:56.157Z,18.98
2022-11-24T05:38:27.627Z,26.40
2022-11-24T05:41:05.936Z,19.00
2022-11-24T05:43:39.891Z,16.52
2022-11-24T05:46:10.457Z,17.23
2022-11-24T05:48:41.049Z,15.00
2022-11-24T05:51:12.063Z,22.33
2022-11-24T05:53:42.597Z,18.85
2022-11-24T05:56:12.987Z,19.38
2022-11-24T05:58:44.672Z,20.13
2022-11-24T06:01:15.556Z,24.13
2022-11-24T06:03:46.593Z,21.23
2022-11-24T06:06:17.173Z,20.95
2022-11-24T06:08:48.103Z,30.55
2022-11-24T06:11:19.031Z,28.27
2022-11-24T06:13:49.943Z,24.35
2022-11-24T06:16:22.432Z,23.35
2022-11-24T06:18:52.778Z,23.55
2022-11-24T06:21:23.321Z,20.25
2022-11-24T06:23:54.380Z,18.95
2022-11-24T06:26:25.106Z,13.65
2022-11-24T06:28:55.718Z,15.52
2022-11-24T06:31:27.393Z,13.40
2022-11-24T06:33:58.649Z,12.82
2022-11-24T06:36:29.638Z,20.20
2022-11-24T06:39:03.232Z,22.33
2022-11-24T06:41:34.355Z,19.85
2022-11-24T06:44:05.973Z,21.23
2022-11-24T06:46:37.907Z,16.85
2022-11-24T06:49:08.479Z,19.10
2022-11-24T06:51:39.413Z,14.73
2022-11-24T06:54:16.674Z,19.48
2022-11-24T06:56:47.308Z,17.98
2022-11-24T06:59:21.103Z,25.55
2022-11-24T07:01:51.774Z,12.60
2022-11-24T07:04:22.486Z,15.40
2022-11-24T07:06:52.971Z,25.60
2022-11-24T07:09:23.831Z,19.05
2022-11-24T07:11:57.615Z,18.40
2022-11-24T07:14:27.905Z,25.52
2022-11-24T07:16:58.781Z,23.23
2022-11-24T07:19:29.507Z,20.02
2022-11-24T07:22:00.325Z,16.10
2022-11-24T07:24:31.527Z,17.75
2022-11-24T07:27:02.242Z,20.48
2022-11-24T07:29:33.110Z,18.27
2022-11-24T07:32:05.654Z,18.45
2022-11-24T07:34:38.629Z,21.60
2022-11-24T07:37:10.123Z,25.70
2022-11-24T07:39:40.942Z,20.90
2022-11-24T07:42:12.474Z,27.88
2022-11-24T07:44:43.346Z,18.23
2022-11-24T07:47:14.040Z,24.95
2022-11-24T07:49:44.797Z,20.30
2022-11-24T07:52:15.444Z,18.70
2022-11-24T07:54:46.525Z,14.30
2022-11-24T07:57:17.285Z,14.25
2022-11-24T07:59:48.128Z,22.27
2022-11-24T08:02:18.700Z,16.65
2022-11-24T08:04:49.401Z,20.67
2022-11-24T08:07:20.348Z,16.60
2022-11-24T08:09:51.546Z,18.70
2022-11-24T08:12:24.573Z,16.70
2022-11-24T08:14:55.456Z,19.58
2022-11-24T08:17:26.633Z,13.80
2022-11-24T08:19:57.774Z,8.65
2022-11-24T08:22:28.056Z,7.65
2022-11-24T08:24:58.656Z,8.05
2022-11-24T08:27:29.282Z,13.98
2022-11-24T08:30:00.589Z,12.85
2022-11-24T08:32:32.326Z,8.18
2022-11-24T08:35:13.734Z,10.07
2022-11-24T08:37:45.124Z,9.18
2022-11-24T08:40:16.263Z,9.73
2022-11-24T08:42:47.130Z,9.82
2022-11-24T08:45:21.209Z,6.65
2022-11-24T08:47:58.510Z,8.82
2022-11-24T08:50:29.372Z,10.10
2022-11-24T08:52:59.946Z,11.95
2022-11-24T08:55:31.458Z,8.63
2022-11-24T08:58:02.039Z,10.68
2022-11-24T09:00:32.321Z,10.98
2022-11-24T09:03:03.987Z,13.20
2022-11-24T09:08:25.103Z,9.60
2022-11-24T09:10:56.115Z,11.40
2022-11-24T09:13:26.661Z,10.40
2022-11-24T09:16:05.496Z,10.80
2022-11-24T09:18:36.619Z,16.58
2022-11-24T09:21:19.672Z,11.75
2022-11-24T09:23:52.214Z,8.00
2022-11-24T09:26:25.718Z,21.48
2022-11-24T09:28:57.751Z,12.70
2022-11-24T09:31:31.599Z,9.48
2022-11-24T09:34:04.187Z,9.77
2022-11-24T09:36:35.330Z,10.35
2022-11-24T09:39:06.827Z,13.98
2022-11-24T09:41:58.520Z,13.48
2022-11-24T09:44:47.084Z,12.70
2022-11-24T09:47:35.790Z,11.48
2022-11-24T09:50:23.383Z,11.65
2022-11-24T09:53:13.289Z,8.75
2022-11-24T09:55:58.732Z,11.77
2022-11-24T09:58:46.311Z,9.57
2022-11-24T10:01:42.076Z,20.98
2022-11-24T10:04:23.951Z,16.08
2022-11-24T10:07:13.236Z,13.27
2022-11-24T10:09:50.373Z,11.98
2022-11-24T10:12:51.259Z,10.43
2022-11-24T10:15:35.869Z,10.98
2022-11-24T10:18:31.271Z,16.17
2022-11-24T10:21:38.920Z,12.32
2022-11-24T10:24:41.284Z,14.48
2022-11-24T10:27:22.987Z,9.98
2022-11-24T10:29:54.483Z,16.73
2022-11-24T10:32:29.596Z,13.05
2022-11-24T10:35:18.203Z,14.48
2022-11-24T10:38:23.798Z,21.55
2022-11-24T10:41:11.894Z,19.33
2022-11-24T10:43:43.221Z,18.20
2022-11-24T10:46:21.063Z,18.40
2022-11-24T10:49:03.954Z,32.80
2022-11-24T10:51:46.948Z,18.73
2022-11-24T10:54:20.504Z,22.65
2022-11-24T10:56:54.521Z,19.27
2022-11-24T10:59:40.329Z,16.05
2022-11-24T11:02:43.100Z,16.88
2022-11-24T11:05:29.571Z,20.38
2022-11-24T11:08:23.020Z,23.15
2022-11-24T11:11:31.418Z,16.42
2022-11-24T11:14:04.939Z,26.55
2022-11-24T11:16:55.585Z,25.85
2022-11-24T11:19:50.883Z,21.60
2022-11-24T11:22:29.076Z,29.65
2022-11-24T11:25:24.246Z,25.65
2022-11-24T11:28:23.665Z,23.60
2022-11-24T11:34:12.495Z,23.05
2022-11-24T11:36:51.094Z,23.00
2022-11-24T11:39:36.837Z,32.00
2022-11-24T11:42:53.634Z,32.95
2022-11-24T11:45:42.514Z,42.22
2022-11-24T11:48:16.257Z,29.77
2022-11-24T11:51:21.859Z,27.83
2022-11-24T11:53:47.470Z,28.55
2022-11-24T11:56:18.055Z,31.08
2022-11-24T11:59:13.747Z,31.95
2022-11-24T12:02:06.455Z,31.08
2022-11-24T12:04:51.817Z,31.50
2022-11-24T12:07:48.985Z,29.85
2022-11-24T12:10:33.525Z,32.75
2022-11-24T12:13:36.891Z,63.50
2022-11-24T12:16:39.881Z,31.70
2022-11-24T12:19:16.211Z,36.58
2022-11-24T12:22:02.347Z,62.25
2022-11-24T12:24:52.845Z,31.65
2022-11-24T12:27:33.337Z,24.80
2022-11-24T12:30:15.134Z,23.33
2022-11-24T12:33:26.945Z,24.20
2022-11-24T12:36:15.547Z,19.65
2022-11-24T12:38:54.808Z,19.38
2022-11-24T12:41:50.650Z,22.75
2022-11-24T12:44:27.628Z,19.52
2022-11-24T12:47:14.958Z,18.33
2022-11-24T12:50:09.303Z,24.73
2022-11-24T12:52:52.878Z,25.27
2022-11-24T12:55:26.731Z,19.75
2022-11-24T12:58:12.702Z,20.70
2022-11-24T13:01:02.534Z,18.00
2022-11-24T13:03:53.263Z,18.52
2022-11-24T13:06:32.037Z,16.27
2022-11-24T13:09:13.803Z,20.23
2022-11-24T13:11:50.904Z,16.52
2022-11-24T13:14:34.285Z,15.57
2022-11-24T13:17:39.703Z,15.30
2022-11-24T13:20:21.014Z,16.05
2022-11-24T13:22:57.483Z,17.05
2022-11-24T13:25:41.634Z,15.05
2022-11-24T13:29:01.753Z,14.73
2022-11-24T13:31:36.953Z,13.73
2022-11-24T13:34:56.002Z,17.05
2022-11-24T13:37:33.974Z,14.88
2022-11-24T13:40:15.545Z,13.60
2022-11-24T13:43:06.988Z,11.43
2022-11-24T13:45:40.704Z,14.80
2022-11-24T13:48:21.157Z,17.63
2022-11-24T13:50:55.733Z,21.58
2022-11-24T13:53:47.130Z,21.10
2022-11-24T13:56:17.515Z,20.63
2022-11-24T13:58:51.932Z,18.95
2022-11-24T14:01:30.506Z,20.80
2022-11-24T14:04:32.640Z,15.90
2022-11-24T14:07:09.717Z,15.57
2022-11-24T14:09:46.469Z,20.67
2022-11-24T14:12:19.998Z,21.02
2022-11-24T14:14:52.685Z,21.90
2022-11-24T14:17:24.704Z,21.65
2022-11-24T14:19:57.352Z,21.65
2022-11-24T14:22:36.415Z,18.60
2022-11-24T14:25:09.683Z,17.77
2022-11-24T14:27:41.027Z,16.48
2022-11-24T14:30:11.343Z,20.42
2022-11-24T14:32:43.235Z,13.05
2022-11-24T14:35:29.709Z,21.20
2022-11-24T14:38:04.802Z,18.45
2022-11-24T14:40:43.633Z,22.20
2022-11-24T14:43:30.060Z,17.00
2022-11-24T14:46:03.903Z,15.85
2022-11-24T14:48:39.155Z,16.67
2022-11-24T14:51:13.220Z,16.77
2022-11-24T14:53:48.255Z,22.77
2022-11-24T14:56:29.666Z,19.65
2022-11-24T14:59:00.805Z,19.65
2022-11-24T15:01:34.450Z,16.33
2022-11-24T15:04:38.811Z,17.30
2022-11-24T15:07:27.757Z,17.23
2022-11-24T15:10:00.502Z,21.67
2022-11-24T15:12:37.883Z,19.75
2022-11-24T15:15:33.067Z,18.73
2022-11-24T15:18:04.809Z,17.80
2022-11-24T15:20:38.844Z,16.38
2022-11-24T15:23:25.839Z,19.17
2022-11-24T15:26:06.004Z,12.77
2022-11-24T15:28:36.549Z,18.70
2022-11-24T15:31:11.099Z,20.48
2022-11-24T15:33:43.445Z,18.13
2022-11-24T15:36:15.844Z,22.52
2022-11-24T15:38:46.998Z,17.92
2022-11-24T15:41:22.297Z,23.08
2022-11-24T15:43:59.807Z,15.75
2022-11-24T15:46:40.629Z,17.80
2022-11-24T15:49:11.554Z,21.23
2022-11-24T15:51:45.172Z,17.10
2022-11-24T15:54:19.522Z,17.42
2022-11-24T15:56:49.853Z,24.08
2022-11-24T15:59:21.260Z,20.77
2022-11-24T16:01:52.877Z,17.83
2022-11-24T16:04:23.988Z,19.38
2022-11-24T16:06:54.902Z,17.33
2022-11-24T16:09:25.435Z,17.50
2022-11-24T16:11:55.694Z,15.63
2022-11-24T16:14:28.646Z,19.08
2022-11-24T16:16:59.119Z,17.45
2022-11-24T16:19:30.179Z,15.88
2022-11-24T16:22:00.412Z,16.98
2022-11-24T16:24:30.814Z,13.48
2022-11-24T16:27:01.358Z,19.13
2022-11-24T16:29:36.875Z,14.80
2022-11-24T16:32:20.096Z,20.98
2022-11-24T16:34:50.787Z,19.45
2022-11-24T16:37:24.477Z,19.67
2022-11-24T16:39:55.279Z,21.73
2022-11-24T16:42:26.030Z,22.55
2022-11-24T16:44:56.858Z,19.35
2022-11-24T16:47:27.123Z,21.73
2022-11-24T16:49:57.692Z,15.60
2022-11-24T16:52:28.452Z,20.20
2022-11-24T16:54:59.152Z,18.85
2022-11-24T16:57:30.029Z,22.42
2022-11-24T17:00:01.057Z,19.00
2022-11-24T17:02:31.967Z,21.38
2022-11-24T17:05:03.304Z,22.05
2022-11-24T17:07:34.487Z,24.13
2022-11-24T17:10:05.632Z,23.83
2022-11-24T17:12:37.734Z,31.23
2022-11-24T17:18:23.530Z,36.85
2022-11-24T17:20:51.530Z,29.17
2022-11-24T17:23:22.516Z,29.27
2022-11-24T17:25:53.066Z,29.10
2022-11-24T17:28:23.972Z,32.78
2022-11-24T17:30:54.948Z,34.97
2022-11-24T17:33:25.809Z,26.23
2022-11-24T17:35:56.252Z,25.92
2022-11-24T17:38:26.698Z,33.63
2022-11-24T17:40:58.545Z,30.55
2022-11-24T17:43:31.765Z,37.58
2022-11-24T17:46:03.620Z,28.77
2022-11-24T17:48:34.532Z,36.65
2022-11-24T17:51:08.758Z,37.70
2022-11-24T17:53:40.950Z,30.52
2022-11-24T17:56:19.322Z,29.23
2022-11-24T17:58:50.353Z,29.23
2022-11-24T18:01:21.043Z,29.15
2022-11-24T18:03:53.641Z,41.05
2022-11-24T18:06:26.211Z,39.00
2022-11-24T18:08:59.183Z,35.17
2022-11-24T18:11:32.178Z,36.60
2022-11-24T18:14:04.999Z,36.47
2022-11-24T18:16:36.483Z,28.10
2022-11-24T18:19:11.505Z,34.95
2022-11-24T18:21:45.678Z,37.63
2022-11-24T18:24:19.780Z,35.42
2022-11-24T18:26:54.237Z,39.00
2022-11-24T18:29:24.781Z,33.15
2022-11-24T18:31:55.259Z,35.60
2022-11-24T18:34:27.080Z,45.25
2022-11-24T18:36:58.485Z,38.97
2022-11-24T18:39:30.458Z,47.40
2022-11-24T18:42:00.913Z,48.97
2022-11-24T18:44:31.846Z,42.70
2022-11-24T18:47:02.877Z,44.10
2022-11-24T18:49:33.293Z,42.67
2022-11-24T18:52:03.909Z,46.42
2022-11-24T18:54:35.177Z,45.78
2022-11-24T18:57:06.218Z,47.53
2022-11-24T18:59:37.759Z,49.38
2022-11-24T19:02:08.184Z,42.08
2022-11-24T19:04:39.525Z,45.00
2022-11-24T19:07:10.177Z,44.70
2022-11-24T19:09:40.759Z,50.08
2022-11-24T19:12:11.742Z,64.32
2022-11-24T19:14:42.583Z,53.00
2022-11-24T19:17:13.394Z,48.97
2022-11-24T19:19:44.157Z,44.08
2022-11-24T19:22:16.739Z,45.85
2022-11-24T19:24:47.981Z,47.80
2022-11-24T19:27:19.586Z,42.30
2022-11-24T19:29:50.023Z,40.75
2022-11-24T19:32:20.486Z,40.35
2022-11-24T19:34:50.879Z,43.75
2022-11-24T19:37:22.427Z,42.78
2022-11-24T19:39:53.349Z,29.38
2022-11-24T19:42:26.789Z,34.60
2022-11-24T19:44:57.895Z,43.67
2022-11-24T19:47:29.593Z,35.42
2022-11-24T19:49:59.909Z,41.00
2022-11-24T19:52:31.100Z,44.40
2022-11-24T19:55:01.661Z,39.80
2022-11-24T19:57:33.605Z,49.95
2022-11-24T20:00:04.569Z,37.58
2022-11-24T20:02:35.523Z,42.63
2022-11-24T20:05:09.063Z,36.90
2022-11-24T20:07:42.271Z,38.15
2022-11-24T20:10:12.949Z,32.05
2022-11-24T20:12:44.090Z,35.63
2022-11-24T20:15:15.293Z,37.78
2022-11-24T20:17:46.009Z,36.75
2022-11-24T20:20:24.196Z,38.83
2022-11-24T20:22:54.840Z,44.97
2022-11-24T20:25:28.670Z,38.22
2022-11-24T20:27:58.889Z,45.90
2022-11-24T20:30:29.768Z,34.13
2022-11-24T20:33:01.099Z,32.25
2022-11-24T20:35:31.644Z,37.45
2022-11-24T20:38:02.102Z,38.25
2022-11-24T20:40:32.831Z,42.35
2022-11-24T20:43:03.430Z,44.55
2022-11-24T20:45:34.269Z,29.70
2022-11-24T20:48:04.938Z,35.67
2022-11-24T20:50:39.030Z,34.85
2022-11-24T20:53:10.219Z,28.58
2022-11-24T20:55:40.465Z,37.70
2022-11-24T20:58:20.236Z,31.48
2022-11-24T21:00:51.321Z,28.67
2022-11-24T21:03:21.812Z,26.20
2022-11-24T21:05:56.875Z,29.15
2022-11-24T21:08:30.630Z,26.80
2022-11-24T21:11:01.887Z,24.38
2022-11-24T21:13:36.623Z,31.30
2022-11-24T21:16:15.967Z,30.27
2022-11-24T21:18:48.480Z,29.38
2022-11-24T21:21:20.712Z,28.52
2022-11-24T21:23:52.231Z,32.17
2022-11-24T21:26:23.196Z,31.98
2022-11-24T21:28:53.840Z,33.70
2022-11-24T21:31:27.530Z,32.97
2022-11-24T21:33:59.851Z,27.10
2022-11-24T21:36:30.454Z,28.85
2022-11-24T21:39:01.390Z,28.77
2022-11-24T21:41:34.238Z,28.27
2022-11-24T21:44:04.854Z,27.90
2022-11-24T21:46:44.130Z,37.38
2022-11-24T21:49:37.128Z,34.67
2022-11-24T21:52:07.402Z,38.80
2022-11-24T21:54:37.786Z,42.67
2022-11-24T21:57:08.170Z,43.95
2022-11-24T21:59:41.892Z,54.10
2022-11-24T22:02:13.962Z,50.67
2022-11-24T22:04:44.697Z,61.83
2022-11-24T22:07:15.254Z,43.30
2022-11-24T22:09:47.706Z,50.05
2022-11-24T22:12:18.341Z,40.10
2022-11-24T22:14:51.529Z,35.53
2022-11-24T22:17:24.246Z,43.42
2022-11-24T22:19:54.775Z,44.55
2022-11-24T22:22:25.691Z,40.88
2022-11-24T22:24:59.716Z,42.08
2022-11-24T22:27:31.086Z,41.90
2022-11-24T22:30:01.741Z,42.88
2022-11-24T22:32:31.925Z,44.13
2022-11-24T22:35:03.722Z,43.80
2022-11-24T22:37:34.563Z,43.58
2022-11-24T22:40:06.710Z,33.65
2022-11-24T22:42:38.202Z,34.83
2022-11-24T22:45:09.304Z,44.67
2022-11-24T22:47:39.864Z,36.28
2022-11-24T22:50:11.069Z,36.72
2022-11-24T22:52:41.826Z,30.83
2022-11-24T22:55:12.503Z,33.33
2022-11-24T22:57:47.439Z,42.42
2022-11-24T23:00:19.492Z,43.40
2022-11-24T23:02:49.997Z,43.05
2022-11-24T23:05:21.598Z,41.45
2022-11-24T23:07:52.852Z,37.75
2022-11-24T23:10:23.295Z,49.33
2022-11-24T23:12:55.541Z,40.60
2022-11-24T23:15:26.111Z,48.88
2022-11-24T23:17:57.456Z,49.78
2022-11-24T23:20:28.290Z,47.55
2022-11-24T23:22:59.893Z,48.45
2022-11-24T23:25:31.662Z,44.22
2022-11-24T23:28:02.768Z,43.00
2022-11-24T23:30:33.315Z,43.05
2022-11-24T23:33:03.847Z,49.03
2022-11-24T23:35:37.323Z,52.05
2022-11-24T23:38:08.210Z,54.15
2022-11-24T23:40:38.896Z,42.40
2022-11-24T23:43:09.675Z,36.65
2022-11-24T23:45:39.944Z,34.55
2022-11-24T23:48:10.505Z,37.58
2022-11-24T23:50:41.570Z,30.67
2022-11-24T23:53:11.797Z,26.42
2022-11-24T23:55:43.170Z,22.88
2022-11-24T23:58:13.972Z,25.90
